sensor_id;sensor_type;location;lat;lon;timestamp;temperature;humidity
76102;SHT30;64830;46.910;6.354;2023-05-10T00:00:29;11.58;86.24
76102;SHT30;64830;46.910;6.354;2023-05-10T00:02:54;11.62;86.16
76102;SHT30;64830;46.910;6.354;2023-05-10T00:05:20;11.61;85.78
76102;SHT30;64830;46.910;6.354;2023-05-10T00:07:45;11.63;85.58
76102;SHT30;64830;46.910;6.354;2023-05-10T00:10:11;11.61;85.59
76102;SHT30;64830;46.910;6.354;2023-05-10T00:12:37;11.59;85.50
76102;SHT30;64830;46.910;6.354;2023-05-10T00:15:02;11.59;85.72
76102;SHT30;64830;46.910;6.354;2023-05-10T00:17:28;11.62;85.84
76102;SHT30;64830;46.910;6.354;2023-05-10T00:19:53;11.63;85.66
76102;SHT30;64830;46.910;6.354;2023-05-10T00:22:19;11.63;85.40
76102;SHT30;64830;46.910;6.354;2023-05-10T00:24:45;11.63;85.66
76102;SHT30;64830;46.910;6.354;2023-05-10T00:27:10;11.61;85.60
76102;SHT30;64830;46.910;6.354;2023-05-10T00:29:36;11.62;85.54
76102;SHT30;64830;46.910;6.354;2023-05-10T00:32:01;11.62;85.16
76102;SHT30;64830;46.910;6.354;2023-05-10T00:34:26;11.63;85.68
76102;SHT30;64830;46.910;6.354;2023-05-10T00:36:52;11.67;85.49
76102;SHT30;64830;46.910;6.354;2023-05-10T00:39:17;11.67;85.56
76102;SHT30;64830;46.910;6.354;2023-05-10T00:41:43;11.67;85.48
76102;SHT30;64830;46.910;6.354;2023-05-10T00:44:08;11.63;85.23
76102;SHT30;64830;46.910;6.354;2023-05-10T00:46:34;11.58;85.64
76102;SHT30;64830;46.910;6.354;2023-05-10T00:49:00;11.51;85.91
76102;SHT30;64830;46.910;6.354;2023-05-10T00:51:25;11.45;85.82
76102;SHT30;64830;46.910;6.354;2023-05-10T00:53:51;11.39;85.99
76102;SHT30;64830;46.910;6.354;2023-05-10T00:56:17;11.38;86.23
76102;SHT30;64830;46.910;6.354;2023-05-10T00:58:42;11.38;86.46
76102;SHT30;64830;46.910;6.354;2023-05-10T01:01:08;11.32;86.45
76102;SHT30;64830;46.910;6.354;2023-05-10T01:03:34;11.29;86.48
76102;SHT30;64830;46.910;6.354;2023-05-10T01:06:00;11.25;86.19
76102;SHT30;64830;46.910;6.354;2023-05-10T01:08:26;11.21;86.16
76102;SHT30;64830;46.910;6.354;2023-05-10T01:10:52;11.22;85.93
76102;SHT30;64830;46.910;6.354;2023-05-10T01:15:58;11.17;85.98
76102;SHT30;64830;46.910;6.354;2023-05-10T01:18:24;11.12;86.19
76102;SHT30;64830;46.910;6.354;2023-05-10T01:21:01;11.17;86.46
76102;SHT30;64830;46.910;6.354;2023-05-10T01:23:39;11.12;86.34
76102;SHT30;64830;46.910;6.354;2023-05-10T01:26:34;11.11;86.43
76102;SHT30;64830;46.910;6.354;2023-05-10T01:35:13;11.11;85.36
76102;SHT30;64830;46.910;6.354;2023-05-10T01:37:57;11.01;85.54
76102;SHT30;64830;46.910;6.354;2023-05-10T01:40:40;10.93;85.52
76102;SHT30;64830;46.910;6.354;2023-05-10T01:43:12;10.89;85.85
76102;SHT30;64830;46.910;6.354;2023-05-10T01:46:02;10.87;86.02
76102;SHT30;64830;46.910;6.354;2023-05-10T01:48:36;10.89;86.03
76102;SHT30;64830;46.910;6.354;2023-05-10T01:51:04;10.89;86.11
76102;SHT30;64830;46.910;6.354;2023-05-10T01:53:31;10.89;85.85
76102;SHT30;64830;46.910;6.354;2023-05-10T01:55:59;10.87;85.81
76102;SHT30;64830;46.910;6.354;2023-05-10T01:58:29;10.90;86.07
76102;SHT30;64830;46.910;6.354;2023-05-10T02:00:57;10.90;85.44
76102;SHT30;64830;46.910;6.354;2023-05-10T02:03:27;10.89;85.50
76102;SHT30;64830;46.910;6.354;2023-05-10T02:05:54;10.89;85.57
76102;SHT30;64830;46.910;6.354;2023-05-10T02:08:21;10.89;85.31
76102;SHT30;64830;46.910;6.354;2023-05-10T02:10:49;10.89;85.46
76102;SHT30;64830;46.910;6.354;2023-05-10T02:13:16;10.84;85.27
76102;SHT30;64830;46.910;6.354;2023-05-10T02:15:42;10.80;85.36
76102;SHT30;64830;46.910;6.354;2023-05-10T02:18:09;10.74;85.40
76102;SHT30;64830;46.910;6.354;2023-05-10T02:20:36;10.67;85.18
76102;SHT30;64830;46.910;6.354;2023-05-10T02:23:03;10.60;84.88
76102;SHT30;64830;46.910;6.354;2023-05-10T02:25:31;10.53;85.21
76102;SHT30;64830;46.910;6.354;2023-05-10T02:27:57;10.50;85.39
76102;SHT30;64830;46.910;6.354;2023-05-10T02:30:25;10.50;85.35
76102;SHT30;64830;46.910;6.354;2023-05-10T02:32:51;10.49;85.42
76102;SHT30;64830;46.910;6.354;2023-05-10T02:35:17;10.46;85.39
76102;SHT30;64830;46.910;6.354;2023-05-10T02:37:44;10.46;85.49
76102;SHT30;64830;46.910;6.354;2023-05-10T02:40:11;10.44;85.44
76102;SHT30;64830;46.910;6.354;2023-05-10T02:42:41;10.41;85.84
76102;SHT30;64830;46.910;6.354;2023-05-10T02:45:11;10.36;85.65
76102;SHT30;64830;46.910;6.354;2023-05-10T02:47:37;10.32;85.72
76102;SHT30;64830;46.910;6.354;2023-05-10T02:50:03;10.28;85.87
76102;SHT30;64830;46.910;6.354;2023-05-10T02:52:34;10.25;86.24
76102;SHT30;64830;46.910;6.354;2023-05-10T02:55:02;10.29;86.14
76102;SHT30;64830;46.910;6.354;2023-05-10T02:57:32;10.28;86.15
76102;SHT30;64830;46.910;6.354;2023-05-10T02:59:58;10.25;86.38
76102;SHT30;64830;46.910;6.354;2023-05-10T03:02:25;10.22;86.56
76102;SHT30;64830;46.910;6.354;2023-05-10T03:04:51;10.24;86.42
76102;SHT30;64830;46.910;6.354;2023-05-10T03:07:16;10.18;86.61
76102;SHT30;64830;46.910;6.354;2023-05-10T03:09:44;10.17;86.99
76102;SHT30;64830;46.910;6.354;2023-05-10T03:12:31;10.11;87.00
76102;SHT30;64830;46.910;6.354;2023-05-10T03:15:11;10.10;87.02
76102;SHT30;64830;46.910;6.354;2023-05-10T03:20:10;10.00;87.58
76102;SHT30;64830;46.910;6.354;2023-05-10T03:22:46;9.95;87.80
76102;SHT30;64830;46.910;6.354;2023-05-10T03:25:15;9.94;87.96
76102;SHT30;64830;46.910;6.354;2023-05-10T03:27:43;9.86;88.02
76102;SHT30;64830;46.910;6.354;2023-05-10T03:30:10;9.90;87.86
76102;SHT30;64830;46.910;6.354;2023-05-10T03:32:36;9.91;87.46
76102;SHT30;64830;46.910;6.354;2023-05-10T03:35:09;9.90;87.69
76102;SHT30;64830;46.910;6.354;2023-05-10T03:37:35;9.89;87.26
76102;SHT30;64830;46.910;6.354;2023-05-10T03:40:01;9.87;87.46
76102;SHT30;64830;46.910;6.354;2023-05-10T03:42:27;9.87;87.69
76102;SHT30;64830;46.910;6.354;2023-05-10T03:44:52;9.87;87.46
76102;SHT30;64830;46.910;6.354;2023-05-10T03:47:18;9.87;87.43
76102;SHT30;64830;46.910;6.354;2023-05-10T03:49:43;9.86;87.42
76102;SHT30;64830;46.910;6.354;2023-05-10T03:52:09;9.86;87.38
76102;SHT30;64830;46.910;6.354;2023-05-10T03:54:34;9.82;87.54
76102;SHT30;64830;46.910;6.354;2023-05-10T03:57:00;9.79;87.76
76102;SHT30;64830;46.910;6.354;2023-05-10T03:59:26;9.82;87.82
76102;SHT30;64830;46.910;6.354;2023-05-10T04:01:51;9.79;87.87
76102;SHT30;64830;46.910;6.354;2023-05-10T04:04:17;9.82;87.70
76102;SHT30;64830;46.910;6.354;2023-05-10T04:06:44;9.82;87.74
76102;SHT30;64830;46.910;6.354;2023-05-10T04:09:10;9.77;86.87
76102;SHT30;64830;46.910;6.354;2023-05-10T04:11:36;9.76;86.97
76102;SHT30;64830;46.910;6.354;2023-05-10T04:14:01;9.74;86.84
76102;SHT30;64830;46.910;6.354;2023-05-10T04:16:26;9.72;86.79
76102;SHT30;64830;46.910;6.354;2023-05-10T04:18:52;9.66;86.75
76102;SHT30;64830;46.910;6.354;2023-05-10T04:21:17;9.63;87.14
76102;SHT30;64830;46.910;6.354;2023-05-10T04:23:43;9.65;86.85
76102;SHT30;64830;46.910;6.354;2023-05-10T04:26:08;9.62;86.78
76102;SHT30;64830;46.910;6.354;2023-05-10T04:28:33;9.62;86.62
76102;SHT30;64830;46.910;6.354;2023-05-10T04:31:03;9.65;86.91
76102;SHT30;64830;46.910;6.354;2023-05-10T04:33:29;9.67;87.00
76102;SHT30;64830;46.910;6.354;2023-05-10T04:35:54;9.69;86.71
76102;SHT30;64830;46.910;6.354;2023-05-10T04:38:20;9.65;86.68
76102;SHT30;64830;46.910;6.354;2023-05-10T04:40:45;9.66;86.89
76102;SHT30;64830;46.910;6.354;2023-05-10T04:43:10;9.70;86.72
76102;SHT30;64830;46.910;6.354;2023-05-10T04:45:36;9.70;86.52
76102;SHT30;64830;46.910;6.354;2023-05-10T04:48:01;9.72;86.50
76102;SHT30;64830;46.910;6.354;2023-05-10T04:50:27;9.72;86.36
76102;SHT30;64830;46.910;6.354;2023-05-10T04:52:52;9.70;86.52
76102;SHT30;64830;46.910;6.354;2023-05-10T04:55:17;9.67;86.43
76102;SHT30;64830;46.910;6.354;2023-05-10T04:57:43;9.67;86.71
76102;SHT30;64830;46.910;6.354;2023-05-10T05:00:08;9.69;86.52
76102;SHT30;64830;46.910;6.354;2023-05-10T05:02:34;9.72;86.59
76102;SHT30;64830;46.910;6.354;2023-05-10T05:05:00;9.72;86.26
76102;SHT30;64830;46.910;6.354;2023-05-10T05:07:25;9.73;86.26
76102;SHT30;64830;46.910;6.354;2023-05-10T05:09:51;9.73;85.93
76102;SHT30;64830;46.910;6.354;2023-05-10T05:12:16;9.73;86.14
76102;SHT30;64830;46.910;6.354;2023-05-10T05:14:41;9.70;86.02
76102;SHT30;64830;46.910;6.354;2023-05-10T05:17:07;9.72;86.06
76102;SHT30;64830;46.910;6.354;2023-05-10T05:19:32;9.76;86.14
76102;SHT30;64830;46.910;6.354;2023-05-10T05:21:58;9.79;86.07
76102;SHT30;64830;46.910;6.354;2023-05-10T05:24:23;9.77;86.14
76102;SHT30;64830;46.910;6.354;2023-05-10T05:26:49;9.80;85.54
76102;SHT30;64830;46.910;6.354;2023-05-10T05:29:14;9.72;85.79
76102;SHT30;64830;46.910;6.354;2023-05-10T05:31:40;9.63;86.03
76102;SHT30;64830;46.910;6.354;2023-05-10T05:34:05;9.57;85.99
76102;SHT30;64830;46.910;6.354;2023-05-10T05:36:30;9.53;85.06
76102;SHT30;64830;46.910;6.354;2023-05-10T05:38:57;9.46;84.19
76102;SHT30;64830;46.910;6.354;2023-05-10T05:41:22;9.40;85.03
76102;SHT30;64830;46.910;6.354;2023-05-10T05:43:49;9.39;84.91
76102;SHT30;64830;46.910;6.354;2023-05-10T05:46:15;9.35;85.46
76102;SHT30;64830;46.910;6.354;2023-05-10T05:48:40;9.38;85.62
76102;SHT30;64830;46.910;6.354;2023-05-10T05:51:05;9.36;85.05
76102;SHT30;64830;46.910;6.354;2023-05-10T05:53:31;9.36;85.39
76102;SHT30;64830;46.910;6.354;2023-05-10T05:55:58;9.36;85.57
76102;SHT30;64830;46.910;6.354;2023-05-10T05:58:24;9.35;84.23
76102;SHT30;64830;46.910;6.354;2023-05-10T06:00:50;9.31;84.99
76102;SHT30;64830;46.910;6.354;2023-05-10T06:03:17;9.27;83.91
76102;SHT30;64830;46.910;6.354;2023-05-10T06:05:43;9.24;84.34
76102;SHT30;64830;46.910;6.354;2023-05-10T06:08:09;9.27;84.58
76102;SHT30;64830;46.910;6.354;2023-05-10T06:10:34;9.25;84.22
76102;SHT30;64830;46.910;6.354;2023-05-10T06:13:00;9.25;84.28
76102;SHT30;64830;46.910;6.354;2023-05-10T06:15:25;9.27;84.68
76102;SHT30;64830;46.910;6.354;2023-05-10T06:17:51;9.25;84.55
76102;SHT30;64830;46.910;6.354;2023-05-10T06:20:17;9.27;84.48
76102;SHT30;64830;46.910;6.354;2023-05-10T06:22:42;9.31;84.63
76102;SHT30;64830;46.910;6.354;2023-05-10T06:25:08;9.34;84.20
76102;SHT30;64830;46.910;6.354;2023-05-10T06:27:34;9.35;84.29
76102;SHT30;64830;46.910;6.354;2023-05-10T06:30:00;9.34;83.74
76102;SHT30;64830;46.910;6.354;2023-05-10T06:32:25;9.29;83.75
76102;SHT30;64830;46.910;6.354;2023-05-10T06:34:51;9.24;83.38
76102;SHT30;64830;46.910;6.354;2023-05-10T06:37:16;9.21;83.74
76102;SHT30;64830;46.910;6.354;2023-05-10T06:39:42;9.22;84.08
76102;SHT30;64830;46.910;6.354;2023-05-10T06:42:07;9.27;83.88
76102;SHT30;64830;46.910;6.354;2023-05-10T06:44:32;9.25;83.56
76102;SHT30;64830;46.910;6.354;2023-05-10T06:46:58;9.28;83.51
76102;SHT30;64830;46.910;6.354;2023-05-10T06:49:23;9.31;83.13
76102;SHT30;64830;46.910;6.354;2023-05-10T06:51:49;9.29;82.65
76102;SHT30;64830;46.910;6.354;2023-05-10T06:54:14;9.32;83.51
76102;SHT30;64830;46.910;6.354;2023-05-10T06:56:39;9.32;84.04
76102;SHT30;64830;46.910;6.354;2023-05-10T06:59:05;9.36;83.72
76102;SHT30;64830;46.910;6.354;2023-05-10T07:01:30;9.39;83.67
76102;SHT30;64830;46.910;6.354;2023-05-10T07:03:56;9.46;83.40
76102;SHT30;64830;46.910;6.354;2023-05-10T07:06:21;9.52;82.73
76102;SHT30;64830;46.910;6.354;2023-05-10T07:08:47;9.60;81.99
76102;SHT30;64830;46.910;6.354;2023-05-10T07:11:12;9.65;82.62
76102;SHT30;64830;46.910;6.354;2023-05-10T07:13:37;9.69;81.53
76102;SHT30;64830;46.910;6.354;2023-05-10T07:16:06;9.82;83.23
76102;SHT30;64830;46.910;6.354;2023-05-10T07:18:32;10.02;81.56
76102;SHT30;64830;46.910;6.354;2023-05-10T07:20:58;10.14;82.08
76102;SHT30;64830;46.910;6.354;2023-05-10T07:23:23;10.22;81.52
76102;SHT30;64830;46.910;6.354;2023-05-10T07:25:49;10.25;79.77
76102;SHT30;64830;46.910;6.354;2023-05-10T07:28:18;10.25;80.04
76102;SHT30;64830;46.910;6.354;2023-05-10T07:30:43;10.27;80.61
76102;SHT30;64830;46.910;6.354;2023-05-10T07:33:10;10.31;80.95
76102;SHT30;64830;46.910;6.354;2023-05-10T07:35:36;10.32;80.23
76102;SHT30;64830;46.910;6.354;2023-05-10T07:38:02;10.25;80.14
76102;SHT30;64830;46.910;6.354;2023-05-10T07:40:28;10.21;80.49
76102;SHT30;64830;46.910;6.354;2023-05-10T07:42:53;10.17;79.18
76102;SHT30;64830;46.910;6.354;2023-05-10T07:45:19;10.12;79.29
76102;SHT30;64830;46.910;6.354;2023-05-10T07:47:44;10.14;80.49
76102;SHT30;64830;46.910;6.354;2023-05-10T07:50:10;10.11;80.23
76102;SHT30;64830;46.910;6.354;2023-05-10T07:52:35;10.08;79.95
76102;SHT30;64830;46.910;6.354;2023-05-10T07:55:01;10.05;80.18
76102;SHT30;64830;46.910;6.354;2023-05-10T07:57:26;10.01;80.66
76102;SHT30;64830;46.910;6.354;2023-05-10T07:59:51;9.97;80.73
76102;SHT30;64830;46.910;6.354;2023-05-10T08:02:17;9.91;81.02
76102;SHT30;64830;46.910;6.354;2023-05-10T08:04:42;9.94;81.47
76102;SHT30;64830;46.910;6.354;2023-05-10T08:07:07;10.02;81.68
76102;SHT30;64830;46.910;6.354;2023-05-10T08:09:33;10.07;81.65
76102;SHT30;64830;46.910;6.354;2023-05-10T08:11:58;10.14;81.94
76102;SHT30;64830;46.910;6.354;2023-05-10T08:14:25;10.12;81.12
76102;SHT30;64830;46.910;6.354;2023-05-10T08:16:50;10.08;81.06
76102;SHT30;64830;46.910;6.354;2023-05-10T08:19:16;9.97;80.32
76102;SHT30;64830;46.910;6.354;2023-05-10T08:21:45;9.90;81.04
76102;SHT30;64830;46.910;6.354;2023-05-10T08:24:10;9.89;81.03
76102;SHT30;64830;46.910;6.354;2023-05-10T08:26:36;9.77;79.81
76102;SHT30;64830;46.910;6.354;2023-05-10T08:29:02;9.69;80.23
76102;SHT30;64830;46.910;6.354;2023-05-10T08:31:27;9.59;79.41
76102;SHT30;64830;46.910;6.354;2023-05-10T08:33:52;9.60;80.83
76102;SHT30;64830;46.910;6.354;2023-05-10T08:36:18;9.63;81.17
76102;SHT30;64830;46.910;6.354;2023-05-10T08:38:49;9.65;80.14
76102;SHT30;64830;46.910;6.354;2023-05-10T08:41:15;9.66;80.24
76102;SHT30;64830;46.910;6.354;2023-05-10T08:43:41;9.63;80.63
76102;SHT30;64830;46.910;6.354;2023-05-10T08:46:15;9.59;81.23
76102;SHT30;64830;46.910;6.354;2023-05-10T08:48:43;9.57;80.58
76102;SHT30;64830;46.910;6.354;2023-05-10T08:51:09;9.56;81.21
76102;SHT30;64830;46.910;6.354;2023-05-10T08:53:37;9.56;81.44
76102;SHT30;64830;46.910;6.354;2023-05-10T08:56:03;9.56;81.59
76102;SHT30;64830;46.910;6.354;2023-05-10T08:58:28;9.59;81.15
76102;SHT30;64830;46.910;6.354;2023-05-10T09:00:54;9.62;80.72
76102;SHT30;64830;46.910;6.354;2023-05-10T09:03:21;9.65;81.21
76102;SHT30;64830;46.910;6.354;2023-05-10T09:05:47;9.77;82.26
76102;SHT30;64830;46.910;6.354;2023-05-10T09:08:13;9.94;80.67
76102;SHT30;64830;46.910;6.354;2023-05-10T09:10:43;10.07;80.85
76102;SHT30;64830;46.910;6.354;2023-05-10T09:13:10;10.22;80.90
76102;SHT30;64830;46.910;6.354;2023-05-10T09:15:36;10.34;79.86
76102;SHT30;64830;46.910;6.354;2023-05-10T09:18:02;10.32;78.72
76102;SHT30;64830;46.910;6.354;2023-05-10T09:20:27;10.35;79.03
76102;SHT30;64830;46.910;6.354;2023-05-10T09:22:53;10.44;78.77
76102;SHT30;64830;46.910;6.354;2023-05-10T09:25:19;10.57;78.60
76102;SHT30;64830;46.910;6.354;2023-05-10T09:27:45;10.63;77.08
76102;SHT30;64830;46.910;6.354;2023-05-10T09:30:36;10.74;75.39
76102;SHT30;64830;46.910;6.354;2023-05-10T09:33:01;10.97;76.23
76102;SHT30;64830;46.910;6.354;2023-05-10T09:35:30;11.19;78.51
76102;SHT30;64830;46.910;6.354;2023-05-10T09:37:57;11.46;76.45
76102;SHT30;64830;46.910;6.354;2023-05-10T09:40:25;11.58;71.89
76102;SHT30;64830;46.910;6.354;2023-05-10T09:43:01;11.67;71.33
76102;SHT30;64830;46.910;6.354;2023-05-10T09:45:28;11.70;72.27
76102;SHT30;64830;46.910;6.354;2023-05-10T09:47:55;11.74;71.38
76102;SHT30;64830;46.910;6.354;2023-05-10T09:50:21;11.70;72.27
76102;SHT30;64830;46.910;6.354;2023-05-10T09:52:55;11.53;70.27
76102;SHT30;64830;46.910;6.354;2023-05-10T09:55:25;11.38;72.83
76102;SHT30;64830;46.910;6.354;2023-05-10T09:57:59;11.39;73.20
76102;SHT30;64830;46.910;6.354;2023-05-10T10:00:26;11.36;71.52
76102;SHT30;64830;46.910;6.354;2023-05-10T10:02:56;11.46;72.43
76102;SHT30;64830;46.910;6.354;2023-05-10T10:05:35;11.65;73.99
76102;SHT30;64830;46.910;6.354;2023-05-10T10:08:03;11.77;73.87
76102;SHT30;64830;46.910;6.354;2023-05-10T10:10:31;11.80;71.35
76102;SHT30;64830;46.910;6.354;2023-05-10T10:12:57;11.70;69.21
76102;SHT30;64830;46.910;6.354;2023-05-10T10:15:23;11.58;69.19
76102;SHT30;64830;46.910;6.354;2023-05-10T10:17:50;11.53;71.97
76102;SHT30;64830;46.910;6.354;2023-05-10T10:20:17;11.47;71.08
76102;SHT30;64830;46.910;6.354;2023-05-10T10:22:42;11.28;70.58
76102;SHT30;64830;46.910;6.354;2023-05-10T10:25:11;11.14;69.24
76102;SHT30;64830;46.910;6.354;2023-05-10T10:28:00;11.04;70.39
76102;SHT30;64830;46.910;6.354;2023-05-10T10:30:41;11.00;72.54
76102;SHT30;64830;46.910;6.354;2023-05-10T10:33:40;11.08;73.28
76102;SHT30;64830;46.910;6.354;2023-05-10T10:36:09;11.06;75.32
76102;SHT30;64830;46.910;6.354;2023-05-10T10:44:22;11.58;72.52
76102;SHT30;64830;46.910;6.354;2023-05-10T10:55:08;12.21;70.26
76102;SHT30;64830;46.910;6.354;2023-05-10T11:00:29;12.38;68.66
76102;SHT30;64830;46.910;6.354;2023-05-10T11:03:15;12.45;66.23
76102;SHT30;64830;46.910;6.354;2023-05-10T11:05:48;12.32;66.38
76102;SHT30;64830;46.910;6.354;2023-05-10T11:16:18;11.93;70.36
76102;SHT30;64830;46.910;6.354;2023-05-10T11:21:19;11.80;69.85
76102;SHT30;64830;46.910;6.354;2023-05-10T11:23:53;11.74;70.85
76102;SHT30;64830;46.910;6.354;2023-05-10T11:26:27;11.77;71.86
76102;SHT30;64830;46.910;6.354;2023-05-10T11:28:55;11.80;70.67
76102;SHT30;64830;46.910;6.354;2023-05-10T11:31:22;11.79;69.65
76102;SHT30;64830;46.910;6.354;2023-05-10T11:36:39;11.90;70.30
76102;SHT30;64830;46.910;6.354;2023-05-10T11:39:05;12.08;71.60
76102;SHT30;64830;46.910;6.354;2023-05-10T11:41:31;12.21;69.92
76102;SHT30;64830;46.910;6.354;2023-05-10T11:43:57;12.29;67.47
76102;SHT30;64830;46.910;6.354;2023-05-10T11:46:25;12.35;69.39
76102;SHT30;64830;46.910;6.354;2023-05-10T11:48:54;12.46;69.04
76102;SHT30;64830;46.910;6.354;2023-05-10T11:51:23;12.41;68.85
76102;SHT30;64830;46.910;6.354;2023-05-10T11:53:52;12.18;71.01
76102;SHT30;64830;46.910;6.354;2023-05-10T11:56:18;11.89;71.38
76102;SHT30;64830;46.910;6.354;2023-05-10T11:58:44;11.55;71.19
76102;SHT30;64830;46.910;6.354;2023-05-10T12:01:12;11.27;73.74
76102;SHT30;64830;46.910;6.354;2023-05-10T12:03:38;11.07;75.75
76102;SHT30;64830;46.910;6.354;2023-05-10T12:06:05;10.85;74.83
76102;SHT30;64830;46.910;6.354;2023-05-10T12:08:31;10.81;75.87
76102;SHT30;64830;46.910;6.354;2023-05-10T12:11:08;10.80;76.77
76102;SHT30;64830;46.910;6.354;2023-05-10T12:13:40;10.87;76.89
76102;SHT30;64830;46.910;6.354;2023-05-10T12:16:19;11.00;77.38
76102;SHT30;64830;46.910;6.354;2023-05-10T12:18:45;11.12;77.84
76102;SHT30;64830;46.910;6.354;2023-05-10T12:21:11;11.34;76.29
76102;SHT30;64830;46.910;6.354;2023-05-10T12:23:38;11.43;75.60
76102;SHT30;64830;46.910;6.354;2023-05-10T12:26:04;11.58;75.97
76102;SHT30;64830;46.910;6.354;2023-05-10T12:28:31;11.63;76.01
76102;SHT30;64830;46.910;6.354;2023-05-10T12:31:00;11.77;75.71
76102;SHT30;64830;46.910;6.354;2023-05-10T12:33:26;11.79;76.11
76102;SHT30;64830;46.910;6.354;2023-05-10T12:35:54;11.83;75.48
76102;SHT30;64830;46.910;6.354;2023-05-10T12:38:40;11.81;72.52
76102;SHT30;64830;46.910;6.354;2023-05-10T12:41:13;11.73;74.02
76102;SHT30;64830;46.910;6.354;2023-05-10T12:43:39;11.79;74.65
76102;SHT30;64830;46.910;6.354;2023-05-10T12:46:09;11.89;72.53
76102;SHT30;64830;46.910;6.354;2023-05-10T12:48:36;11.94;73.76
76102;SHT30;64830;46.910;6.354;2023-05-10T12:51:03;12.02;73.07
76102;SHT30;64830;46.910;6.354;2023-05-10T12:53:29;12.14;74.00
76102;SHT30;64830;46.910;6.354;2023-05-10T12:55:55;12.29;73.73
76102;SHT30;64830;46.910;6.354;2023-05-10T12:58:21;12.39;73.01
76102;SHT30;64830;46.910;6.354;2023-05-10T13:00:46;12.28;70.19
76102;SHT30;64830;46.910;6.354;2023-05-10T13:03:12;12.07;71.50
76102;SHT30;64830;46.910;6.354;2023-05-10T13:05:38;11.84;73.46
76102;SHT30;64830;46.910;6.354;2023-05-10T13:08:03;11.58;73.98
76102;SHT30;64830;46.910;6.354;2023-05-10T13:10:30;11.40;74.66
76102;SHT30;64830;46.910;6.354;2023-05-10T13:12:57;11.34;75.13
76102;SHT30;64830;46.910;6.354;2023-05-10T13:15:23;11.35;76.75
76102;SHT30;64830;46.910;6.354;2023-05-10T13:17:48;11.43;75.55
76102;SHT30;64830;46.910;6.354;2023-05-10T13:20:14;11.52;74.14
76102;SHT30;64830;46.910;6.354;2023-05-10T13:22:41;11.59;74.13
76102;SHT30;64830;46.910;6.354;2023-05-10T13:25:07;11.55;73.50
76102;SHT30;64830;46.910;6.354;2023-05-10T13:27:33;11.55;74.24
76102;SHT30;64830;46.910;6.354;2023-05-10T13:29:58;11.47;73.32
76102;SHT30;64830;46.910;6.354;2023-05-10T13:32:25;11.45;73.92
76102;SHT30;64830;46.910;6.354;2023-05-10T13:34:51;11.43;74.15
76102;SHT30;64830;46.910;6.354;2023-05-10T13:37:16;11.36;72.15
76102;SHT30;64830;46.910;6.354;2023-05-10T13:39:41;11.35;72.65
76102;SHT30;64830;46.910;6.354;2023-05-10T13:42:07;11.39;71.14
76102;SHT30;64830;46.910;6.354;2023-05-10T13:44:32;11.39;71.63
76102;SHT30;64830;46.910;6.354;2023-05-10T13:46:59;11.46;71.59
76102;SHT30;64830;46.910;6.354;2023-05-10T13:49:24;11.53;72.68
76102;SHT30;64830;46.910;6.354;2023-05-10T13:51:49;11.62;71.73
76102;SHT30;64830;46.910;6.354;2023-05-10T13:54:16;11.66;72.63
76102;SHT30;64830;46.910;6.354;2023-05-10T13:56:44;11.72;72.57
76102;SHT30;64830;46.910;6.354;2023-05-10T13:59:10;11.72;72.99
76102;SHT30;64830;46.910;6.354;2023-05-10T14:01:35;11.66;73.51
76102;SHT30;64830;46.910;6.354;2023-05-10T14:04:01;11.62;74.56
76102;SHT30;64830;46.910;6.354;2023-05-10T14:06:27;11.58;72.48
76102;SHT30;64830;46.910;6.354;2023-05-10T14:08:52;11.32;72.28
76102;SHT30;64830;46.910;6.354;2023-05-10T14:11:18;11.22;72.96
76102;SHT30;64830;46.910;6.354;2023-05-10T14:13:44;11.18;74.04
76102;SHT30;64830;46.910;6.354;2023-05-10T14:16:09;11.22;74.63
76102;SHT30;64830;46.910;6.354;2023-05-10T14:18:35;11.22;74.51
76102;SHT30;64830;46.910;6.354;2023-05-10T14:21:01;11.18;74.45
76102;SHT30;64830;46.910;6.354;2023-05-10T14:23:27;11.24;74.85
76102;SHT30;64830;46.910;6.354;2023-05-10T14:25:53;11.32;75.00
76102;SHT30;64830;46.910;6.354;2023-05-10T14:28:19;11.35;75.01
76102;SHT30;64830;46.910;6.354;2023-05-10T14:30:46;11.39;74.73
76102;SHT30;64830;46.910;6.354;2023-05-10T14:33:11;11.39;74.06
76102;SHT30;64830;46.910;6.354;2023-05-10T14:35:37;11.45;75.00
76102;SHT30;64830;46.910;6.354;2023-05-10T14:38:02;11.52;75.29
76102;SHT30;64830;46.910;6.354;2023-05-10T14:40:31;11.56;74.36
76102;SHT30;64830;46.910;6.354;2023-05-10T14:42:56;11.58;74.15
76102;SHT30;64830;46.910;6.354;2023-05-10T14:45:22;11.65;73.58
76102;SHT30;64830;46.910;6.354;2023-05-10T14:47:48;11.58;71.64
76102;SHT30;64830;46.910;6.354;2023-05-10T14:50:14;11.49;72.61
76102;SHT30;64830;46.910;6.354;2023-05-10T14:52:39;11.42;72.28
76102;SHT30;64830;46.910;6.354;2023-05-10T14:55:05;11.40;73.00
76102;SHT30;64830;46.910;6.354;2023-05-10T14:57:31;11.40;73.82
76102;SHT30;64830;46.910;6.354;2023-05-10T14:59:57;11.46;72.66
76102;SHT30;64830;46.910;6.354;2023-05-10T15:02:22;11.46;72.04
76102;SHT30;64830;46.910;6.354;2023-05-10T15:04:48;11.25;70.68
76102;SHT30;64830;46.910;6.354;2023-05-10T15:07:13;10.90;73.13
76102;SHT30;64830;46.910;6.354;2023-05-10T15:09:41;10.65;73.66
76102;SHT30;64830;46.910;6.354;2023-05-10T15:12:07;10.52;75.05
76102;SHT30;64830;46.910;6.354;2023-05-10T15:14:32;10.38;75.98
76102;SHT30;64830;46.910;6.354;2023-05-10T15:16:58;10.31;77.70
76102;SHT30;64830;46.910;6.354;2023-05-10T15:19:24;10.32;78.00
76102;SHT30;64830;46.910;6.354;2023-05-10T15:21:49;10.36;78.69
76102;SHT30;64830;46.910;6.354;2023-05-10T15:24:15;10.44;78.84
76102;SHT30;64830;46.910;6.354;2023-05-10T15:26:40;10.56;77.98
76102;SHT30;64830;46.910;6.354;2023-05-10T15:29:06;10.66;79.36
76102;SHT30;64830;46.910;6.354;2023-05-10T15:31:31;10.76;78.93
76102;SHT30;64830;46.910;6.354;2023-05-10T15:33:59;10.90;78.70
76102;SHT30;64830;46.910;6.354;2023-05-10T15:36:25;10.97;78.58
76102;SHT30;64830;46.910;6.354;2023-05-10T15:38:50;11.00;78.14
76102;SHT30;64830;46.910;6.354;2023-05-10T15:41:16;11.11;77.99
76102;SHT30;64830;46.910;6.354;2023-05-10T15:43:42;11.22;78.17
76102;SHT30;64830;46.910;6.354;2023-05-10T15:46:07;11.34;77.35
76102;SHT30;64830;46.910;6.354;2023-05-10T15:48:32;11.43;75.47
76102;SHT30;64830;46.910;6.354;2023-05-10T15:50:58;11.52;75.68
76102;SHT30;64830;46.910;6.354;2023-05-10T15:53:23;11.58;75.36
76102;SHT30;64830;46.910;6.354;2023-05-10T15:55:49;11.61;74.78
76102;SHT30;64830;46.910;6.354;2023-05-10T15:58:14;11.63;74.23
76102;SHT30;64830;46.910;6.354;2023-05-10T16:00:40;11.65;75.35
76102;SHT30;64830;46.910;6.354;2023-05-10T16:03:05;11.67;74.05
76102;SHT30;64830;46.910;6.354;2023-05-10T16:05:31;11.61;75.05
76102;SHT30;64830;46.910;6.354;2023-05-10T16:07:58;11.63;74.98
76102;SHT30;64830;46.910;6.354;2023-05-10T16:10:24;11.63;74.27
76102;SHT30;64830;46.910;6.354;2023-05-10T16:12:49;11.65;74.24
76102;SHT30;64830;46.910;6.354;2023-05-10T16:15:14;11.81;74.70